Time;durP1;ratioP1;P1;durP2;ratioP2;P2;SDS_P1;SDS_P2;PMS_P1;PMS_P2;Temp;Humidity;BMP_temperature;BMP_pressure;BME280_temperature;BME280_humidity;BME280_pressure;Samples;Min_cycle;Max_cycle;Signal;HPM_P1;HPM_P2
2022/07/28 00:01:33;;;;;;;4.30;3.30;;;21.40;75.20;;;;;;5095945;28;20584;-67
2022/07/28 00:04:00;;;;;;;3.17;2.93;;;21.40;75.10;;;;;;5095902;28;20475;-67
2022/07/28 00:06:27;;;;;;;3.40;3.20;;;21.50;74.30;;;;;;5096212;28;20458;-67
2022/07/28 00:08:56;;;;;;;3.03;2.83;;;21.50;73.90;;;;;;5095780;28;20468;-67
2022/07/28 00:11:23;;;;;;;3.13;2.93;;;21.50;74.20;;;;;;5095900;28;20478;-67
2022/07/28 00:13:50;;;;;;;3.70;3.33;;;21.50;74.90;;;;;;5095480;28;20479;-67
2022/07/28 00:16:17;;;;;;;4.53;3.20;;;21.40;74.50;;;;;;5095298;28;20471;-67
2022/07/28 00:18:44;;;;;;;4.70;3.97;;;21.30;74.90;;;;;;5095739;28;20526;-67
2022/07/28 00:21:11;;;;;;;3.87;3.10;;;21.20;75.30;;;;;;5096003;28;20534;-67
2022/07/28 00:23:37;;;;;;;3.10;2.80;;;21.10;76.20;;;;;;5095629;28;20479;-67
2022/07/28 00:26:06;;;;;;;3.17;2.90;;;20.90;74.90;;;;;;5095217;28;20481;-67
2022/07/28 00:28:33;;;;;;;6.40;3.00;;;20.80;75.30;;;;;;5095511;28;20482;-67
2022/07/28 00:31:00;;;;;;;4.60;2.90;;;20.80;75.00;;;;;;5095573;28;20498;-67
2022/07/28 00:33:27;;;;;;;3.40;3.10;;;20.80;75.10;;;;;;5095580;28;20486;-67
2022/07/28 00:35:53;;;;;;;3.50;3.20;;;20.70;75.60;;;;;;5095137;28;20969;-67
2022/07/28 00:38:20;;;;;;;3.10;2.90;;;20.70;75.40;;;;;;5095124;28;20482;-67
2022/07/28 00:43:33;;;;;;;2.80;2.60;;;20.50;75.40;;;;;;5095443;28;20429;-67
2022/07/28 00:46:00;;;;;;;3.63;2.70;;;20.60;76.00;;;;;;5095253;28;20477;-67
2022/07/28 00:48:27;;;;;;;3.40;3.10;;;20.60;76.70;;;;;;5095078;28;20454;-67
2022/07/28 00:50:54;;;;;;;4.33;2.90;;;20.70;76.00;;;;;;5095206;28;20470;-67
2022/07/28 00:53:21;;;;;;;3.17;2.97;;;20.60;76.20;;;;;;5095052;28;20482;-68
2022/07/28 00:55:48;;;;;;;7.17;2.93;;;20.60;76.90;;;;;;5094567;28;20532;-67
2022/07/28 00:58:15;;;;;;;3.23;3.00;;;20.60;77.60;;;;;;5095006;28;20446;-67
2022/07/28 01:00:43;;;;;;;4.33;2.90;;;20.80;78.20;;;;;;5094917;28;20453;-67
2022/07/28 01:03:10;;;;;;;3.73;3.40;;;20.80;77.40;;;;;;5094755;28;20534;-67
2022/07/28 01:05:52;;;;;;;3.53;3.10;;;20.80;77.30;;;;;;5094398;28;20505;-67
2022/07/28 01:08:27;;;;;;;3.57;3.27;;;20.80;77.00;;;;;;5094539;28;20475;-67
2022/07/28 01:11:11;;;;;;;4.17;2.73;;;20.80;77.50;;;;;;5094780;28;20482;-67
2022/07/28 01:13:46;;;;;;;3.80;2.87;;;20.80;77.40;;;;;;5094934;28;20447;-67
2022/07/28 01:16:15;;;;;;;3.43;3.00;;;20.70;77.80;;;;;;5094896;28;20469;-67
2022/07/28 01:18:47;;;;;;;3.00;2.80;;;20.70;77.80;;;;;;5094444;28;20483;-67
2022/07/28 01:21:20;;;;;;;3.07;2.87;;;20.60;79.30;;;;;;5094734;28;20452;-67
2022/07/28 01:24:03;;;;;;;5.00;3.97;;;20.60;79.80;;;;;;5094361;28;20443;-68
2022/07/28 01:26:41;;;;;;;3.20;2.90;;;20.60;78.60;;;;;;5094605;28;20477;-67
2022/07/28 01:29:27;;;;;;;3.73;3.23;;;20.50;78.30;;;;;;5094004;28;20515;-67
2022/07/28 01:32:02;;;;;;;4.23;3.13;;;20.40;79.00;;;;;;5094557;28;20534;-66
2022/07/28 01:34:33;;;;;;;4.30;3.40;;;20.30;80.10;;;;;;5094130;28;20499;-67
2022/07/28 01:37:06;;;;;;;3.80;3.33;;;20.30;79.60;;;;;;5094091;28;20439;-67
2022/07/28 01:39:35;;;;;;;3.60;3.30;;;20.20;79.80;;;;;;5094058;28;20441;-67
2022/07/28 01:42:04;;;;;;;3.73;3.43;;;20.20;80.80;;;;;;5094223;28;20474;-67
2022/07/28 01:44:34;;;;;;;3.53;3.27;;;20.20;80.50;;;;;;5094161;28;20499;-67
2022/07/28 01:47:06;;;;;;;3.60;3.30;;;20.20;80.50;;;;;;5094353;28;20479;-67
2022/07/28 01:49:34;;;;;;;4.00;3.20;;;20.20;80.70;;;;;;5094220;28;20527;-67
2022/07/28 01:52:02;;;;;;;3.90;3.50;;;20.10;80.60;;;;;;5094048;28;20506;-67
2022/07/28 01:54:31;;;;;;;4.37;3.17;;;20.10;80.80;;;;;;5093556;28;20516;-67
2022/07/28 01:57:00;;;;;;;3.97;3.67;;;20.10;80.70;;;;;;5093818;28;20481;-67
2022/07/28 01:59:30;;;;;;;3.90;3.50;;;20.00;81.70;;;;;;5094000;28;20520;-67
2022/07/28 02:01:59;;;;;;;3.50;3.27;;;20.10;80.60;;;;;;5094045;28;20485;-67
2022/07/28 02:04:29;;;;;;;3.90;3.50;;;20.10;80.80;;;;;;5093667;28;20470;-67
2022/07/28 02:06:58;;;;;;;4.77;3.87;;;20.10;80.90;;;;;;5094050;28;20462;-67
2022/07/28 02:09:26;;;;;;;3.73;3.43;;;20.10;81.10;;;;;;5093863;28;20479;-67
2022/07/28 02:11:54;;;;;;;3.63;3.30;;;20.00;81.00;;;;;;5093828;28;20901;-67
2022/07/28 02:14:23;;;;;;;4.33;3.53;;;19.90;81.00;;;;;;5093714;28;20793;-67
2022/07/28 02:16:54;;;;;;;3.10;2.80;;;19.80;82.20;;;;;;5093837;28;20469;-67
2022/07/28 02:19:22;;;;;;;3.40;3.10;;;19.90;81.80;;;;;;5093693;28;20234;-67
2022/07/28 02:21:51;;;;;;;3.27;2.97;;;19.90;81.80;;;;;;5093786;28;20476;-67
2022/07/28 02:24:21;;;;;;;6.73;3.50;;;19.90;81.90;;;;;;5093563;28;20498;-67
2022/07/28 02:26:53;;;;;;;3.67;3.37;;;19.90;82.10;;;;;;5093721;28;20452;-67
2022/07/28 02:29:24;;;;;;;4.20;3.10;;;19.80;81.80;;;;;;5093677;28;20976;-67
2022/07/28 02:31:57;;;;;;;3.73;3.43;;;19.80;82.30;;;;;;5093808;28;20441;-67
2022/07/28 02:34:27;;;;;;;3.80;3.50;;;19.70;83.10;;;;;;5093279;28;20500;-67
2022/07/28 02:36:58;;;;;;;3.77;3.47;;;19.70;83.00;;;;;;5094438;28;20465;-67
2022/07/28 02:39:29;;;;;;;3.90;3.60;;;19.70;83.00;;;;;;5095752;28;20469;-67
2022/07/28 02:42:02;;;;;;;3.35;3.15;;;19.70;83.60;;;;;;5097800;28;20289;-67
2022/07/28 02:44:35;;;;;;;3.53;3.23;;;19.50;83.30;;;;;;5097339;28;20223;-67
2022/07/28 02:47:06;;;;;;;4.53;3.23;;;19.40;84.30;;;;;;5098326;28;20457;-67
2022/07/28 02:49:35;;;;;;;3.58;3.38;;;19.40;84.30;;;;;;5097446;28;20526;-67
2022/07/28 02:52:06;;;;;;;3.55;3.35;;;19.40;85.20;;;;;;5097492;28;20242;-67
2022/07/28 02:54:36;;;;;;;4.30;3.58;;;19.40;85.50;;;;;;5097053;28;20613;-67
2022/07/28 02:57:06;;;;;;;3.83;3.47;;;19.40;85.40;;;;;;5097546;28;20242;-67
2022/07/28 02:59:35;;;;;;;3.85;3.55;;;19.30;85.90;;;;;;5097316;28;20203;-67
2022/07/28 03:02:03;;;;;;;3.47;3.17;;;19.20;86.00;;;;;;5097231;28;20235;-66
2022/07/28 03:07:18;;;;;;;3.90;3.60;;;19.10;86.70;;;;;;5097433;28;20185;-67
2022/07/28 03:09:48;;;;;;;4.20;3.80;;;19.10;88.40;;;;;;5097186;28;20254;-67
2022/07/28 03:12:15;;;;;;;3.97;3.67;;;19.10;87.50;;;;;;5097182;28;20203;-67
2022/07/28 03:14:42;;;;;;;4.37;3.17;;;19.20;87.80;;;;;;5096854;28;20495;-67
2022/07/28 03:17:09;;;;;;;4.30;3.50;;;19.20;87.50;;;;;;5097055;28;20476;-67
2022/07/28 03:19:37;;;;;;;3.72;3.20;;;19.30;86.90;;;;;;5096969;28;20596;-67
2022/07/28 03:22:04;;;;;;;3.92;3.63;;;19.30;87.10;;;;;;5096842;28;20210;-67
2022/07/28 03:24:35;;;;;;;3.77;3.47;;;19.30;87.40;;;;;;5096443;28;20742;-67
2022/07/28 03:27:09;;;;;;;3.97;3.45;;;19.20;87.30;;;;;;5096840;28;20467;-67
2022/07/28 03:29:37;;;;;;;4.45;3.40;;;19.10;87.80;;;;;;5096701;28;20214;-67
2022/07/28 03:32:04;;;;;;;4.35;3.95;;;19.10;88.40;;;;;;5096592;28;20241;-67
2022/07/28 03:34:31;;;;;;;5.93;3.75;;;19.10;88.10;;;;;;5096187;28;20625;-67
2022/07/28 03:37:02;;;;;;;3.95;3.65;;;19.10;88.20;;;;;;5096260;28;20243;-67
2022/07/28 03:39:34;;;;;;;4.25;3.85;;;19.00;89.00;;;;;;5096317;28;20226;-67
2022/07/28 03:42:03;;;;;;;4.10;3.70;;;18.90;88.50;;;;;;5096656;28;20245;-67
2022/07/28 03:44:31;;;;;;;4.10;3.80;;;19.00;88.90;;;;;;5095835;28;20756;-67
2022/07/28 03:46:57;;;;;;;4.15;3.72;;;18.90;88.70;;;;;;5096393;28;20241;-67
2022/07/28 03:49:24;;;;;;;4.13;3.72;;;18.80;88.30;;;;;;5096026;28;20288;-67
2022/07/28 03:51:51;;;;;;;3.90;3.60;;;18.80;89.20;;;;;;5095370;28;20205;-67
2022/07/28 03:54:18;;;;;;;3.83;3.53;;;18.90;89.90;;;;;;5095617;28;20588;-67
2022/07/28 03:56:46;;;;;;;4.57;4.13;;;19.00;89.50;;;;;;5096138;28;20241;-66
2022/07/28 03:59:13;;;;;;;5.50;4.03;;;19.00;89.40;;;;;;5096014;28;20256;-67
2022/07/28 04:01:40;;;;;;;4.13;3.80;;;18.90;89.40;;;;;;5096025;28;20238;-67
2022/07/28 04:04:07;;;;;;;4.20;3.80;;;19.00;90.20;;;;;;5095875;28;20238;-67
2022/07/28 04:06:34;;;;;;;4.45;4.15;;;19.10;89.40;;;;;;5096339;28;20204;-67
2022/07/28 04:09:00;;;;;;;4.45;4.05;;;19.10;89.40;;;;;;5096349;28;20239;-67
2022/07/28 04:11:27;;;;;;;5.13;4.72;;;19.20;89.50;;;;;;5095935;28;20315;-67
2022/07/28 04:13:56;;;;;;;6.17;4.20;;;19.10;89.90;;;;;;5095539;28;20237;-67
2022/07/28 04:16:23;;;;;;;4.43;4.03;;;19.20;89.50;;;;;;5096102;28;20478;-67
2022/07/28 04:18:50;;;;;;;5.60;4.30;;;19.10;89.40;;;;;;5095854;28;20480;-67
2022/07/28 04:21:17;;;;;;;6.13;4.18;;;19.10;90.10;;;;;;5096674;28;20561;-67
2022/07/28 04:23:44;;;;;;;4.40;3.80;;;19.10;90.20;;;;;;5095562;28;20235;-68
2022/07/28 04:26:10;;;;;;;4.28;3.95;;;19.10;90.10;;;;;;5095757;28;20268;-67
2022/07/28 04:28:37;;;;;;;4.20;3.80;;;18.90;90.70;;;;;;5095596;28;20249;-67
2022/07/28 04:31:06;;;;;;;4.13;3.83;;;18.90;90.00;;;;;;5095676;28;20510;-67
2022/07/28 04:33:32;;;;;;;4.80;4.03;;;18.80;90.40;;;;;;5094968;28;20248;-67
2022/07/28 04:36:01;;;;;;;4.30;3.90;;;18.70;90.50;;;;;;5095263;28;20312;-67
2022/07/28 04:38:27;;;;;;;4.45;4.05;;;18.90;91.20;;;;;;5095892;28;20202;-67
2022/07/28 04:40:55;;;;;;;4.43;4.03;;;18.90;91.20;;;;;;5095092;28;20703;-67
2022/07/28 04:43:22;;;;;;;4.00;3.78;;;18.90;90.80;;;;;;5095216;28;20588;-67
2022/07/28 04:45:50;;;;;;;4.90;4.40;;;18.80;90.80;;;;;;5094917;28;20225;-67
2022/07/28 04:48:18;;;;;;;5.28;4.72;;;18.90;91.60;;;;;;5095068;28;20257;-67
2022/07/28 04:50:45;;;;;;;5.77;4.23;;;19.00;91.50;;;;;;5094895;28;20313;-67
2022/07/28 04:53:12;;;;;;;4.35;3.95;;;19.20;91.10;;;;;;5095113;28;20492;-67
2022/07/28 04:55:39;;;;;;;4.33;3.93;;;19.30;91.10;;;;;;5094794;28;20263;-67
2022/07/28 04:58:06;;;;;;;5.22;4.80;;;19.30;90.80;;;;;;5094994;28;20451;-67
2022/07/28 05:00:34;;;;;;;4.78;3.97;;;19.10;90.80;;;;;;5094849;28;20238;-67
2022/07/28 05:03:03;;;;;;;6.85;4.13;;;18.90;91.20;;;;;;5094864;28;20255;-67
2022/07/28 05:05:31;;;;;;;4.38;3.97;;;18.90;91.30;;;;;;5094332;28;20226;-67
2022/07/28 05:07:58;;;;;;;5.57;5.07;;;19.00;90.70;;;;;;5094763;28;20197;-67
2022/07/28 05:10:25;;;;;;;5.80;3.83;;;18.90;90.70;;;;;;5094573;28;20317;-67
2022/07/28 05:12:53;;;;;;;5.63;4.10;;;18.90;91.10;;;;;;5094435;28;20257;-67
2022/07/28 05:15:20;;;;;;;4.20;3.85;;;18.70;90.90;;;;;;5094137;28;20232;-67
2022/07/28 05:17:47;;;;;;;4.38;4.00;;;18.60;91.50;;;;;;5094879;28;20236;-67
2022/07/28 05:20:14;;;;;;;4.57;4.28;;;18.70;91.20;;;;;;5094609;28;20284;-67
2022/07/28 05:22:43;;;;;;;4.72;4.32;;;18.70;91.80;;;;;;5094838;28;20206;-67
2022/07/28 05:25:15;;;;;;;5.13;4.63;;;18.70;91.70;;;;;;5094475;28;20230;-66
2022/07/28 05:27:41;;;;;;;4.47;4.00;;;18.60;91.60;;;;;;5094483;28;20238;-67
2022/07/28 05:30:10;;;;;;;5.13;4.68;;;18.60;92.10;;;;;;5094441;28;20229;-67
2022/07/28 05:32:37;;;;;;;5.82;4.63;;;18.70;92.60;;;;;;5094469;28;20209;-66
2022/07/28 05:35:04;;;;;;;5.10;4.60;;;18.80;92.40;;;;;;5094166;28;20256;-67
2022/07/28 05:37:33;;;;;;;6.10;4.93;;;18.80;91.80;;;;;;5094255;28;20935;-67
2022/07/28 05:40:01;;;;;;;5.05;4.65;;;18.70;92.00;;;;;;5094487;28;20440;-67
2022/07/28 05:42:34;;;;;;;6.75;4.55;;;18.70;92.30;;;;;;5094087;28;20252;-67
2022/07/28 05:45:02;;;;;;;5.65;5.10;;;18.60;92.20;;;;;;5094258;28;20584;-67
2022/07/28 05:47:29;;;;;;;5.07;4.78;;;18.50;92.80;;;;;;5094332;28;20205;-67
2022/07/28 05:49:59;;;;;;;6.13;4.53;;;18.50;92.40;;;;;;5094363;28;20234;-67
2022/07/28 05:52:27;;;;;;;4.75;4.35;;;18.40;93.00;;;;;;5094187;28;20237;-68
2022/07/28 05:54:54;;;;;;;5.40;4.90;;;18.50;93.40;;;;;;5093848;28;20219;-67
2022/07/28 05:57:23;;;;;;;6.10;5.60;;;18.50;93.50;;;;;;5094129;28;20252;-67
2022/07/28 05:59:50;;;;;;;5.30;4.80;;;18.50;93.10;;;;;;5094450;28;20244;-67
2022/07/28 06:02:17;;;;;;;6.28;5.30;;;18.60;93.20;;;;;;5093975;28;20437;-67
2022/07/28 06:04:44;;;;;;;5.72;4.90;;;18.70;93.10;;;;;;5093814;28;20268;-67
2022/07/28 06:07:11;;;;;;;5.15;4.72;;;18.70;93.40;;;;;;5093883;28;20241;-67
2022/07/28 06:09:38;;;;;;;6.18;5.38;;;18.80;93.40;;;;;;5093699;28;20241;-67
2022/07/28 06:12:05;;;;;;;6.00;5.50;;;18.80;93.40;;;;;;5094093;28;20266;-67
2022/07/28 06:14:33;;;;;;;5.53;5.13;;;18.90;93.30;;;;;;5093154;28;20258;-67
2022/07/28 06:17:00;;;;;;;6.67;6.07;;;19.00;93.60;;;;;;5094020;28;20480;-67
2022/07/28 06:19:27;;;;;;;5.70;5.25;;;19.00;93.10;;;;;;5094045;28;20441;-67
2022/07/28 06:21:54;;;;;;;6.50;5.90;;;19.10;93.20;;;;;;5093781;28;20199;-67
2022/07/28 06:24:21;;;;;;;7.00;5.75;;;19.20;92.90;;;;;;5093463;28;20683;-67
2022/07/28 06:26:48;;;;;;;7.00;5.73;;;19.30;93.20;;;;;;5093763;28;20605;-67
2022/07/28 06:29:15;;;;;;;6.18;5.63;;;19.20;92.80;;;;;;5093528;28;20472;-67
2022/07/28 06:31:43;;;;;;;5.90;5.40;;;19.20;93.10;;;;;;5093196;28;20314;-67
2022/07/28 06:34:10;;;;;;;6.70;6.20;;;19.30;93.10;;;;;;5093309;28;20449;-67
2022/07/28 06:36:37;;;;;;;6.57;5.97;;;19.30;93.40;;;;;;5093516;28;20483;-67
2022/07/28 06:39:04;;;;;;;7.20;6.40;;;19.30;93.60;;;;;;5093307;28;20447;-67
2022/07/28 06:41:31;;;;;;;7.37;6.67;;;19.40;93.80;;;;;;5093613;28;20624;-67
2022/07/28 06:43:58;;;;;;;7.70;7.10;;;19.50;93.90;;;;;;5093412;28;20440;-67
2022/07/28 06:46:25;;;;;;;8.77;7.97;;;19.50;94.00;;;;;;5093488;28;20476;-67
2022/07/28 06:48:53;;;;;;;7.90;7.20;;;19.60;94.20;;;;;;5093382;28;20469;-68
2022/07/28 06:51:22;;;;;;;7.90;7.07;;;19.60;93.90;;;;;;5093306;28;20520;-67
2022/07/28 06:53:48;;;;;;;7.40;6.77;;;19.70;94.40;;;;;;5092941;28;20453;-67
2022/07/28 06:56:16;;;;;;;7.90;7.23;;;19.80;94.00;;;;;;5093382;28;20504;-67
2022/07/28 06:58:43;;;;;;;7.43;6.73;;;19.80;93.90;;;;;;5093307;28;20447;-67
2022/07/28 07:01:10;;;;;;;7.80;7.00;;;19.90;94.10;;;;;;5093328;28;20479;-67
2022/07/28 07:03:37;;;;;;;8.27;7.57;;;19.90;94.10;;;;;;5093249;28;20482;-67
2022/07/28 07:06:05;;;;;;;8.77;7.93;;;19.90;94.20;;;;;;5092812;28;20503;-66
2022/07/28 07:08:32;;;;;;;10.00;7.70;;;20.00;94.50;;;;;;5093241;28;20477;-67
2022/07/28 07:10:59;;;;;;;8.60;7.80;;;20.00;94.10;;;;;;5093064;28;20480;-67
2022/07/28 07:13:26;;;;;;;9.90;7.63;;;20.10;94.10;;;;;;5093363;28;20474;-67
2022/07/28 07:15:53;;;;;;;8.60;7.80;;;20.20;93.90;;;;;;5092962;28;20526;-67
2022/07/28 07:18:19;;;;;;;8.00;7.30;;;20.40;93.90;;;;;;5093263;28;20449;-67
2022/07/28 07:20:47;;;;;;;8.63;7.93;;;20.40;94.10;;;;;;5093321;28;20863;-67
2022/07/28 07:23:16;;;;;;;8.60;7.80;;;20.50;94.30;;;;;;5093128;28;20448;-67
2022/07/28 07:25:42;;;;;;;8.47;7.60;;;20.60;93.90;;;;;;5094093;28;20467;-67
2022/07/28 07:28:09;;;;;;;10.00;7.93;;;20.80;93.70;;;;;;5096522;28;20474;-67
2022/07/28 07:30:36;;;;;;;10.07;9.27;;;20.80;93.40;;;;;;5096682;28;20487;-67
2022/07/28 07:33:03;;;;;;;9.87;9.00;;;20.80;93.30;;;;;;5097315;28;20476;-67
2022/07/28 07:35:30;;;;;;;9.30;8.40;;;20.70;93.60;;;;;;5097083;28;20545;-67
2022/07/28 07:37:57;;;;;;;9.50;8.60;;;20.70;93.90;;;;;;5097388;28;20497;-67
2022/07/28 07:40:25;;;;;;;9.70;8.80;;;20.80;94.10;;;;;;5097561;28;20470;-68
2022/07/28 07:42:52;;;;;;;9.47;8.70;;;20.80;94.10;;;;;;5097128;28;20482;-67
2022/07/28 07:45:19;;;;;;;10.33;9.43;;;20.90;94.20;;;;;;5096622;28;20570;-67
2022/07/28 07:47:46;;;;;;;9.03;8.20;;;20.90;94.20;;;;;;5096920;28;20529;-67
2022/07/28 07:50:13;;;;;;;10.57;9.67;;;21.00;94.20;;;;;;5096379;28;20918;-67
2022/07/28 07:52:40;;;;;;;10.00;9.10;;;21.10;94.10;;;;;;5096216;28;20909;-67
2022/07/28 07:55:08;;;;;;;10.47;9.60;;;21.20;94.00;;;;;;5096043;28;20471;-67
2022/07/28 07:57:36;;;;;;;10.47;9.53;;;21.20;94.00;;;;;;5096239;28;20479;-67
2022/07/28 08:00:04;;;;;;;10.23;9.33;;;21.20;93.90;;;;;;5096245;28;20467;-67
2022/07/28 08:02:31;;;;;;;9.77;8.87;;;21.40;94.00;;;;;;5095958;28;20523;-67
2022/07/28 08:04:59;;;;;;;10.33;9.43;;;21.60;93.70;;;;;;5095799;28;20537;-67
2022/07/28 08:07:26;;;;;;;10.57;9.67;;;21.70;93.60;;;;;;5096127;28;20843;-67
2022/07/28 08:09:53;;;;;;;10.10;9.20;;;21.90;93.30;;;;;;5095820;28;20446;-67
2022/07/28 08:12:20;;;;;;;9.63;8.67;;;22.20;93.20;;;;;;5095766;28;20472;-67
2022/07/28 08:14:48;;;;;;;9.77;9.00;;;22.40;92.90;;;;;;5095825;28;20533;-68
2022/07/28 08:17:15;;;;;;;10.57;9.53;;;22.80;91.90;;;;;;5096195;28;20444;-67
2022/07/28 08:19:42;;;;;;;10.10;9.30;;;23.50;91.00;;;;;;5095862;28;20465;-68
2022/07/28 08:22:09;;;;;;;9.23;8.40;;;24.10;89.50;;;;;;5095694;28;20530;-67
2022/07/28 08:24:35;;;;;;;9.07;8.37;;;25.00;87.40;;;;;;5095221;28;20502;-68
2022/07/28 08:27:03;;;;;;;9.30;8.50;;;26.10;83.00;;;;;;5095270;28;20497;-67
2022/07/28 08:29:30;;;;;;;9.40;8.70;;;27.50;78.20;;;;;;5095459;28;20479;-67
2022/07/28 08:32:00;;;;;;;8.77;8.17;;;28.60;72.80;;;;;;5095126;28;20512;-68
2022/07/28 08:34:27;;;;;;;9.73;8.93;;;29.80;69.00;;;;;;5094958;28;21008;-68
2022/07/28 08:36:54;;;;;;;9.43;8.63;;;30.30;64.50;;;;;;5095070;28;20441;-68
2022/07/28 08:39:20;;;;;;;9.00;8.30;;;30.00;63.30;;;;;;5095857;28;20445;-68
2022/07/28 08:41:54;;;;;;;9.23;8.33;;;30.20;63.20;;;;;;5095283;28;20470;-68
2022/07/28 08:44:24;;;;;;;8.57;7.97;;;31.40;60.00;;;;;;5094904;28;20547;-68
2022/07/28 08:46:52;;;;;;;9.53;8.73;;;32.50;56.90;;;;;;5095250;28;20456;-68
2022/07/28 08:49:20;;;;;;;9.13;8.47;;;32.20;55.90;;;;;;5094978;28;20493;-68
2022/07/28 08:51:49;;;;;;;9.23;8.43;;;31.90;56.20;;;;;;5094762;28;20478;-68
2022/07/28 08:54:18;;;;;;;9.70;8.80;;;31.60;56.80;;;;;;5094544;28;20472;-68
2022/07/28 08:56:47;;;;;;;9.43;8.63;;;31.80;56.20;;;;;;5094938;28;20802;-68
2022/07/28 08:59:14;;;;;;;9.70;8.93;;;31.80;56.70;;;;;;5094923;28;20857;-68
2022/07/28 09:01:42;;;;;;;10.40;9.60;;;31.50;55.80;;;;;;5094832;28;20472;-68
2022/07/28 09:04:09;;;;;;;9.70;8.80;;;30.90;57.30;;;;;;5094616;28;20472;-68
2022/07/28 09:06:41;;;;;;;10.00;9.20;;;30.90;58.00;;;;;;5094813;28;20487;-67
2022/07/28 09:09:09;;;;;;;10.33;9.53;;;30.90;57.50;;;;;;5094684;28;20523;-67
2022/07/28 09:11:36;;;;;;;9.23;8.63;;;31.00;57.10;;;;;;5094646;28;21009;-68
2022/07/28 09:14:03;;;;;;;9.87;9.17;;;31.60;57.60;;;;;;5094305;28;20483;-68
2022/07/28 09:16:30;;;;;;;9.87;9.07;;;31.70;56.30;;;;;;5094693;28;20446;-68
2022/07/28 09:18:57;;;;;;;10.13;9.43;;;31.50;56.10;;;;;;5094463;28;20866;-68
2022/07/28 09:21:24;;;;;;;8.80;8.10;;;32.00;55.50;;;;;;5094463;28;20464;-68
2022/07/28 09:23:52;;;;;;;8.97;8.17;;;32.70;55.20;;;;;;5094222;28;20440;-68
2022/07/28 09:26:19;;;;;;;9.13;8.33;;;31.90;54.90;;;;;;5094142;28;20479;-68
2022/07/28 09:28:51;;;;;;;10.87;10.00;;;30.90;56.70;;;;;;5094538;28;20479;-68
2022/07/28 09:31:19;;;;;;;10.03;9.33;;;31.10;56.80;;;;;;5094125;28;20508;-68
2022/07/28 09:33:59;;;;;;;9.47;8.77;;;30.90;57.20;;;;;;5094104;28;20793;-68
2022/07/28 09:36:26;;;;;;;10.50;9.70;;;31.10;56.70;;;;;;5094328;28;20436;-68
2022/07/28 09:38:55;;;;;;;9.43;8.73;;;30.60;57.30;;;;;;5094434;28;20442;-68
2022/07/28 09:41:22;;;;;;;10.17;9.23;;;30.50;58.20;;;;;;5093878;28;20467;-68
2022/07/28 09:43:52;;;;;;;9.60;8.90;;;30.80;57.80;;;;;;5093686;28;20473;-68
2022/07/28 09:46:22;;;;;;;9.60;8.90;;;32.00;57.20;;;;;;5093806;28;20448;-68
2022/07/28 09:48:54;;;;;;;9.90;9.00;;;32.70;54.40;;;;;;5093396;28;20479;-68
2022/07/28 09:51:23;;;;;;;10.07;9.17;;;33.60;52.50;;;;;;5093935;28;20464;-68
2022/07/28 09:53:50;;;;;;;9.60;8.90;;;34.00;51.50;;;;;;5093490;28;20483;-68
2022/07/28 09:56:19;;;;;;;9.20;8.50;;;33.40;51.50;;;;;;5093886;28;20517;-68
2022/07/28 09:58:58;;;;;;;9.23;8.53;;;33.00;52.10;;;;;;5093840;28;20480;-68
2022/07/28 10:01:26;;;;;;;9.80;9.00;;;32.60;53.40;;;;;;5093859;28;20531;-68
2022/07/28 10:03:56;;;;;;;9.70;8.90;;;32.70;53.00;;;;;;5093544;28;20440;-68
2022/07/28 10:06:28;;;;;;;9.40;8.70;;;32.70;53.00;;;;;;5093887;28;20432;-68
2022/07/28 10:08:56;;;;;;;10.00;9.20;;;32.70;52.80;;;;;;5093701;28;20443;-68
2022/07/28 10:11:26;;;;;;;9.53;8.93;;;33.40;52.20;;;;;;5093398;28;20446;-68
2022/07/28 10:13:58;;;;;;;9.53;8.83;;;33.60;51.40;;;;;;5093326;28;20926;-68
2022/07/28 10:16:27;;;;;;;9.63;8.97;;;32.70;52.20;;;;;;5093482;28;20431;-68
2022/07/28 10:18:54;;;;;;;10.13;9.33;;;31.80;53.60;;;;;;5093692;28;20967;-68
2022/07/28 10:21:23;;;;;;;10.33;9.63;;;31.80;54.20;;;;;;5093570;28;20475;-68
2022/07/28 10:23:52;;;;;;;9.63;8.80;;;31.40;54.70;;;;;;5093445;28;20483;-68
2022/07/28 10:26:21;;;;;;;9.03;8.33;;;31.30;55.20;;;;;;5093878;28;20447;-68
2022/07/28 10:28:51;;;;;;;9.60;8.90;;;30.90;56.50;;;;;;5093423;28;20483;-68
2022/07/28 10:31:29;;;;;;;8.87;8.17;;;31.20;56.30;;;;;;5093497;28;20807;-68
2022/07/28 10:33:59;;;;;;;8.70;8.00;;;32.10;54.90;;;;;;5093212;28;20440;-68
2022/07/28 10:36:27;;;;;;;9.40;8.80;;;33.50;53.10;;;;;;5093542;28;20444;-68
2022/07/28 10:39:11;;;;;;;9.03;8.43;;;34.10;50.90;;;;;;5093488;28;20479;-68
2022/07/28 10:41:42;;;;;;;9.70;8.90;;;35.10;49.30;;;;;;5093407;28;20831;-68
2022/07/28 10:44:13;;;;;;;8.93;8.23;;;35.30;48.00;;;;;;5093279;28;20479;-68
2022/07/28 10:46:44;;;;;;;9.03;8.33;;;34.10;48.90;;;;;;5093429;28;20439;-68
2022/07/28 10:49:12;;;;;;;9.27;8.60;;;33.80;49.90;;;;;;5093160;28;20479;-68
2022/07/28 10:51:41;;;;;;;8.67;8.07;;;34.20;50.20;;;;;;5093304;28;20447;-68
2022/07/28 10:54:14;;;;;;;9.83;9.03;;;33.90;50.30;;;;;;5093369;28;20487;-66
2022/07/28 10:56:49;;;;;;;9.53;8.77;;;33.70;50.60;;;;;;5093474;28;20821;-68
2022/07/28 10:59:49;;;;;;;9.47;8.57;;;33.10;51.70;;;;;;5093460;28;20467;-68
2022/07/28 11:02:51;;;;;;;9.43;8.83;;;32.50;53.00;;;;;;5091812;28;20478;-68
2022/07/28 11:05:32;;;;;;;9.03;8.33;;;31.70;54.00;;;;;;5034475;28;20558;-68
2022/07/28 11:08:01;;;;;;;9.67;8.80;;;31.40;54.80;;;;;;5090740;28;20526;-68
2022/07/28 11:10:29;;;;;;;9.07;8.20;;;31.00;55.40;;;;;;5097014;28;20486;-68
2022/07/28 11:12:57;;;;;;;9.50;8.70;;;30.40;56.10;;;;;;5096880;28;20478;-68
2022/07/28 11:15:30;;;;;;;9.03;8.33;;;30.20;56.60;;;;;;5096480;28;20464;-68
2022/07/28 11:18:00;;;;;;;9.03;8.43;;;30.10;56.70;;;;;;5096868;28;20472;-68
2022/07/28 11:21:04;;;;;;;10.17;9.10;;;30.20;57.00;;;;;;5097034;28;20501;-68
2022/07/28 11:23:42;;;;;;;9.87;9.07;;;29.70;57.70;;;;;;5096685;28;20479;-68
2022/07/28 11:26:33;;;;;;;8.67;8.00;;;29.40;58.00;;;;;;5096642;28;20467;-68
2022/07/28 11:29:22;;;;;;;8.90;8.20;;;29.30;58.50;;;;;;5096565;28;20444;-68
2022/07/28 11:32:05;;;;;;;8.97;8.27;;;29.30;57.90;;;;;;5096425;28;20440;-68
2022/07/28 11:35:08;;;;;;;9.30;8.60;;;29.50;57.00;;;;;;5096447;28;20502;-68
2022/07/28 11:38:09;;;;;;;9.40;8.70;;;29.80;57.10;;;;;;5034111;28;20442;-68
2022/07/28 11:40:39;;;;;;;9.40;8.50;;;29.70;57.20;;;;;;5092236;28;20483;-68
2022/07/28 11:43:25;;;;;;;8.90;8.30;;;29.80;57.80;;;;;;5096144;28;20483;-68
2022/07/28 11:46:14;;;;;;;9.30;8.60;;;29.80;57.80;;;;;;5096175;28;20799;-68
2022/07/28 11:48:42;;;;;;;8.87;8.27;;;29.70;58.10;;;;;;5096155;28;20878;-68
2022/07/28 11:51:11;;;;;;;8.93;8.33;;;29.90;57.80;;;;;;5096141;28;20436;-68
2022/07/28 11:53:39;;;;;;;8.97;8.37;;;29.90;56.60;;;;;;5095879;28;20482;-68
2022/07/28 11:56:08;;;;;;;8.37;7.77;;;29.50;56.60;;;;;;5095664;28;20498;-68
2022/07/28 11:58:35;;;;;;;8.23;7.60;;;29.20;57.30;;;;;;5096224;28;21017;-68
2022/07/28 12:01:11;;;;;;;8.80;8.20;;;29.20;57.30;;;;;;5095914;28;20482;-68
2022/07/28 12:03:40;;;;;;;7.63;7.03;;;29.50;56.10;;;;;;5095968;28;20436;-68
2022/07/28 12:06:07;;;;;;;7.73;7.13;;;29.50;55.80;;;;;;5095796;28;20514;-68
2022/07/28 12:08:51;;;;;;;8.23;7.73;;;29.60;55.80;;;;;;5095720;28;20440;-68
2022/07/28 12:11:18;;;;;;;8.20;7.60;;;29.70;56.50;;;;;;5095357;28;20536;-68
2022/07/28 12:13:46;;;;;;;8.53;7.87;;;29.60;56.90;;;;;;5095528;28;20521;-68
2022/07/28 12:16:14;;;;;;;7.60;7.10;;;29.50;55.30;;;;;;5095433;28;20495;-68
2022/07/28 12:18:41;;;;;;;7.33;6.83;;;29.50;55.00;;;;;;5095505;28;20444;-68
2022/07/28 12:21:07;;;;;;;7.63;7.03;;;29.50;53.60;;;;;;5095476;28;20941;-68
2022/07/28 12:23:36;;;;;;;7.20;6.50;;;29.60;53.20;;;;;;5095506;28;20482;-68
2022/07/28 12:26:05;;;;;;;7.57;6.97;;;29.70;52.90;;;;;;5095225;28;20969;-68
2022/07/28 12:28:32;;;;;;;7.30;6.80;;;29.80;52.50;;;;;;5095417;28;20448;-68
2022/07/28 12:31:10;;;;;;;6.80;6.30;;;29.90;52.80;;;;;;5095435;28;20440;-68
2022/07/28 12:33:37;;;;;;;6.93;6.50;;;30.10;53.50;;;;;;5095391;28;20476;-68
2022/07/28 12:36:06;;;;;;;8.70;8.10;;;30.10;53.40;;;;;;5094800;28;20499;-68
2022/07/28 12:38:33;;;;;;;7.30;6.80;;;30.00;54.00;;;;;;5095487;28;20479;-68
2022/07/28 12:41:00;;;;;;;7.63;7.03;;;29.80;54.00;;;;;;5095171;28;20483;-68
2022/07/28 12:43:29;;;;;;;7.80;7.30;;;29.50;54.50;;;;;;5095333;28;20478;-68
2022/07/28 12:45:56;;;;;;;7.33;6.83;;;29.50;54.60;;;;;;5094690;28;20475;-68
2022/07/28 12:48:23;;;;;;;7.23;6.77;;;29.50;54.90;;;;;;5094914;28;20483;-68
2022/07/28 12:50:50;;;;;;;7.87;7.27;;;29.50;54.70;;;;;;5095060;28;20448;-68
2022/07/28 12:53:20;;;;;;;7.37;6.83;;;29.50;54.00;;;;;;5094954;28;20494;-68
2022/07/28 12:55:47;;;;;;;6.90;6.40;;;29.50;53.10;;;;;;5094630;28;20472;-68
2022/07/28 12:58:25;;;;;;;6.43;6.03;;;29.60;52.60;;;;;;5094923;28;20535;-68
2022/07/28 13:00:55;;;;;;;6.90;6.40;;;29.70;51.80;;;;;;5094894;28;20848;-68
2022/07/28 13:03:24;;;;;;;7.30;6.60;;;29.60;52.40;;;;;;5094717;28;20444;-68